createdAt,value
2022-08-31T00:00:33.779Z,102447.59
2022-08-31T00:03:21.680Z,102446.75
2022-08-31T00:05:52.176Z,102445.59
2022-08-31T00:08:22.087Z,102449.50
2022-08-31T00:10:52.239Z,102446.53
2022-08-31T00:13:21.356Z,102448.91
2022-08-31T00:15:53.277Z,102450.63
2022-08-31T00:18:23.072Z,102448.06
2022-08-31T00:20:53.656Z,102447.59
2022-08-31T00:23:24.777Z,102448.66
2022-08-31T00:25:55.325Z,102441.78
2022-08-31T00:28:26.030Z,102443.91
2022-08-31T00:30:56.705Z,102442.56
2022-08-31T00:33:26.575Z,102438.28
2022-08-31T00:35:56.827Z,102441.25
2022-08-31T00:38:25.958Z,102443.06
2022-08-31T00:40:54.597Z,102434.38
2022-08-31T00:43:43.068Z,102437.34
2022-08-31T00:46:17.376Z,102434.03
2022-08-31T00:48:51.582Z,102440.22
2022-08-31T00:51:22.291Z,102436.81
2022-08-31T00:53:51.811Z,102429.94
2022-08-31T00:56:21.338Z,102435.47
2022-08-31T00:58:54.393Z,102445.97
2022-08-31T01:01:27.015Z,102441.59
2022-08-31T01:03:58.010Z,102442.25
2022-08-31T01:06:29.152Z,102444.00
2022-08-31T01:09:02.576Z,102443.69
2022-08-31T01:11:35.711Z,102443.03
2022-08-31T01:14:07.225Z,102443.91
2022-08-31T01:16:46.344Z,102446.38
2022-08-31T01:19:26.780Z,102445.72
2022-08-31T01:22:02.525Z,102440.75
2022-08-31T01:24:36.747Z,102445.16
2022-08-31T01:27:09.163Z,102455.28
2022-08-31T01:29:40.245Z,102448.59
2022-08-31T01:32:11.359Z,102448.09
2022-08-31T01:34:43.569Z,102446.88
2022-08-31T01:37:16.201Z,102451.09
2022-08-31T01:39:50.645Z,102452.50
2022-08-31T01:42:21.765Z,102451.38
2022-08-31T01:44:59.878Z,102444.13
2022-08-31T01:47:31.431Z,102455.84
2022-08-31T01:50:00.865Z,102450.53
2022-08-31T01:52:31.917Z,102448.41
2022-08-31T01:55:06.767Z,102456.16
2022-08-31T01:57:37.946Z,102455.66
2022-08-31T02:00:25.353Z,102461.59
2022-08-31T02:02:54.570Z,102457.56
2022-08-31T02:05:22.829Z,102464.16
2022-08-31T02:07:51.010Z,102457.31
2022-08-31T02:10:20.469Z,102459.38
2022-08-31T02:12:49.873Z,102459.38
2022-08-31T02:15:18.255Z,102459.22
2022-08-31T02:17:47.693Z,102456.81
2022-08-31T02:20:21.511Z,102455.38
2022-08-31T02:22:51.629Z,102456.25
2022-08-31T02:25:21.153Z,102454.91
2022-08-31T02:27:49.517Z,102455.94
2022-08-31T02:30:20.757Z,102456.31
2022-08-31T02:32:48.741Z,102465.19
2022-08-31T02:35:17.480Z,102451.81
2022-08-31T02:37:45.700Z,102457.38
2022-08-31T02:40:15.817Z,102460.50
2022-08-31T02:42:53.002Z,102465.00
2022-08-31T02:45:23.718Z,102460.88
2022-08-31T02:47:52.184Z,102464.53
2022-08-31T02:50:35.081Z,102456.75
2022-08-31T02:53:03.098Z,102450.72
2022-08-31T02:55:31.266Z,102451.72
2022-08-31T02:58:00.707Z,102459.16
2022-08-31T03:00:31.912Z,102454.34
2022-08-31T03:03:01.785Z,102454.94
2022-08-31T03:05:33.493Z,102459.03
2022-08-31T03:08:03.933Z,102459.16
2022-08-31T03:10:35.633Z,102456.41
2022-08-31T03:13:07.934Z,102462.47
2022-08-31T03:15:38.309Z,102448.44
2022-08-31T03:18:10.855Z,102458.00
2022-08-31T03:20:41.579Z,102444.72
2022-08-31T03:23:13.699Z,102454.34
2022-08-31T03:25:45.624Z,102451.59
2022-08-31T03:28:17.338Z,102452.97
2022-08-31T03:31:03.453Z,102447.97
2022-08-31T03:33:33.919Z,102443.41
2022-08-31T03:38:36.972Z,102452.72
2022-08-31T03:41:08.244Z,102452.19
2022-08-31T03:43:41.118Z,102448.16
2022-08-31T03:46:14.425Z,102454.75
2022-08-31T03:48:48.232Z,102457.88
2022-08-31T03:51:20.790Z,102455.13
2022-08-31T03:53:52.335Z,102460.16
2022-08-31T03:56:23.907Z,102462.38
2022-08-31T03:58:56.807Z,102461.03
2022-08-31T04:02:00.781Z,102468.66
2022-08-31T04:04:51.202Z,102459.69
2022-08-31T04:07:45.761Z,102463.97
2022-08-31T04:10:32.415Z,102470.47
2022-08-31T04:13:19.253Z,102467.38
2022-08-31T04:16:15.206Z,102473.94
2022-08-31T04:19:01.721Z,102476.22
2022-08-31T04:21:34.832Z,102474.53
2022-08-31T04:24:03.788Z,102471.56
2022-08-31T04:26:35.908Z,102471.19
2022-08-31T04:29:12.193Z,102475.44
2022-08-31T04:31:43.172Z,102482.72
2022-08-31T04:34:12.954Z,102483.00
2022-08-31T04:36:41.522Z,102477.88
2022-08-31T04:39:09.709Z,102487.16
2022-08-31T04:41:39.806Z,102483.22
2022-08-31T04:44:12.315Z,102480.97
2022-08-31T04:46:44.396Z,102486.47
2022-08-31T04:49:14.697Z,102480.28
2022-08-31T04:51:43.106Z,102477.22
2022-08-31T04:54:15.200Z,102482.47
2022-08-31T04:56:45.842Z,102487.94
2022-08-31T04:59:26.110Z,102479.47
2022-08-31T05:02:28.577Z,102488.91
2022-08-31T05:05:07.499Z,102493.22
2022-08-31T05:07:38.476Z,102503.91
2022-08-31T05:10:09.415Z,102497.59
2022-08-31T05:12:39.255Z,102492.91
2022-08-31T05:15:09.742Z,102489.75
2022-08-31T05:17:40.275Z,102494.91
2022-08-31T05:20:10.703Z,102493.84
2022-08-31T05:22:40.642Z,102491.06
2022-08-31T05:25:11.950Z,102497.09
2022-08-31T05:27:43.805Z,102500.72
2022-08-31T05:30:17.496Z,102497.75
2022-08-31T05:32:54.609Z,102495.84
2022-08-31T05:35:24.190Z,102495.84
2022-08-31T05:37:56.278Z,102501.19
2022-08-31T05:40:25.300Z,102498.22
2022-08-31T05:42:57.386Z,102505.00
2022-08-31T05:45:26.980Z,102500.78
2022-08-31T05:47:58.355Z,102499.06
2022-08-31T05:50:29.099Z,102506.34
2022-08-31T05:53:00.195Z,102500.78
2022-08-31T05:55:29.937Z,102498.84
2022-08-31T05:58:01.768Z,102499.94
2022-08-31T06:00:31.125Z,102503.16
2022-08-31T06:03:19.631Z,102502.50
2022-08-31T06:05:52.860Z,102507.34
2022-08-31T06:08:27.438Z,102505.47
2022-08-31T06:11:01.333Z,102510.56
2022-08-31T06:13:31.223Z,102507.97
2022-08-31T06:16:04.955Z,102509.22
2022-08-31T06:18:38.417Z,102516.50
2022-08-31T06:21:12.847Z,102516.09
2022-08-31T06:23:45.070Z,102520.97
2022-08-31T06:26:18.990Z,102509.03
2022-08-31T06:28:51.287Z,102515.81
2022-08-31T06:31:28.106Z,102514.13
2022-08-31T06:34:01.972Z,102516.81
2022-08-31T06:37:05.379Z,102520.63
2022-08-31T06:39:36.138Z,102516.72
2022-08-31T06:42:16.236Z,102522.16
2022-08-31T06:45:06.562Z,102515.31
2022-08-31T06:47:43.969Z,102519.91
2022-08-31T06:50:18.192Z,102521.06
2022-08-31T06:52:51.224Z,102525.75
2022-08-31T06:55:45.047Z,102524.59
2022-08-31T06:58:34.605Z,102528.88
2022-08-31T07:01:35.043Z,102522.97
2022-08-31T07:04:36.362Z,102524.38
2022-08-31T07:07:12.047Z,102526.28
2022-08-31T07:09:43.119Z,102529.16
2022-08-31T07:12:12.600Z,102532.28
2022-08-31T07:14:50.106Z,102533.00
2022-08-31T07:17:26.764Z,102533.16
2022-08-31T07:19:58.216Z,102536.88
2022-08-31T07:22:30.723Z,102542.25
2022-08-31T07:25:22.043Z,102542.91
2022-08-31T07:27:56.690Z,102547.03
2022-08-31T07:30:29.006Z,102541.84
2022-08-31T07:33:08.132Z,102537.84
2022-08-31T07:35:40.946Z,102542.06
2022-08-31T07:38:39.480Z,102539.44
2022-08-31T07:41:30.186Z,102549.00
2022-08-31T07:43:59.735Z,102537.75
2022-08-31T07:46:32.507Z,102537.06
2022-08-31T07:49:07.245Z,102540.41
2022-08-31T07:52:16.957Z,102542.69
2022-08-31T07:55:06.685Z,102538.50
2022-08-31T07:57:57.101Z,102551.50
2022-08-31T08:00:29.288Z,102552.72
2022-08-31T08:03:02.163Z,102556.78
2022-08-31T08:05:40.706Z,102553.56
2022-08-31T08:08:25.592Z,102556.22
2022-08-31T08:11:02.464Z,102550.69
2022-08-31T08:13:42.542Z,102549.63
2022-08-31T08:16:21.876Z,102555.28
2022-08-31T08:19:22.195Z,102552.13
2022-08-31T08:21:51.888Z,102560.25
2022-08-31T08:24:27.250Z,102560.16
2022-08-31T08:27:10.610Z,102561.88
2022-08-31T08:29:39.455Z,102564.66
2022-08-31T08:32:15.452Z,102561.44
2022-08-31T08:34:49.173Z,102564.19
2022-08-31T08:37:35.730Z,102566.28
2022-08-31T08:40:15.328Z,102559.31
2022-08-31T08:42:47.555Z,102562.75
2022-08-31T08:45:16.284Z,102568.09
2022-08-31T08:47:50.906Z,102573.63
2022-08-31T08:50:24.791Z,102573.38
2022-08-31T08:52:57.991Z,102573.44
2022-08-31T08:55:36.947Z,102573.34
2022-08-31T08:58:10.550Z,102573.34
2022-08-31T09:00:53.265Z,102567.44
2022-08-31T09:03:45.092Z,102572.88
2022-08-31T09:06:45.391Z,102562.19
2022-08-31T09:09:30.133Z,102559.69
2022-08-31T09:12:20.700Z,102556.56
2022-08-31T09:15:15.484Z,102559.09
2022-08-31T09:17:59.174Z,102560.97
2022-08-31T09:20:29.066Z,102564.03
2022-08-31T09:23:01.406Z,102560.50
2022-08-31T09:25:35.138Z,102554.13
2022-08-31T09:28:18.986Z,102559.22
2022-08-31T09:30:53.754Z,102558.63
2022-08-31T09:33:28.516Z,102565.91
2022-08-31T09:36:18.493Z,102560.53
2022-08-31T09:38:49.539Z,102557.00
2022-08-31T09:41:34.355Z,102554.13
2022-08-31T09:44:30.995Z,102553.84
2022-08-31T09:47:06.506Z,102549.75
2022-08-31T09:49:39.031Z,102556.25
2022-08-31T09:52:44.127Z,102551.66
2022-08-31T09:55:26.041Z,102556.06
2022-08-31T09:57:59.358Z,102549.47
2022-08-31T10:00:34.439Z,102548.19
2022-08-31T10:03:22.453Z,102538.66
2022-08-31T10:05:55.897Z,102542.31
2022-08-31T10:08:46.313Z,102542.78
2022-08-31T10:11:21.543Z,102538.66
2022-08-31T10:13:58.879Z,102539.53
2022-08-31T10:16:38.099Z,102547.13
2022-08-31T10:19:12.600Z,102525.50
2022-08-31T10:21:52.266Z,102536.75
2022-08-31T10:24:29.635Z,102529.59
2022-08-31T10:27:17.502Z,102530.53
2022-08-31T10:29:56.239Z,102534.22
2022-08-31T10:32:35.628Z,102520.22
2022-08-31T10:35:15.765Z,102519.44
2022-08-31T10:37:57.102Z,102520.16
2022-08-31T10:40:32.600Z,102523.94
2022-08-31T10:43:11.198Z,102518.50
2022-08-31T10:45:44.652Z,102507.00
2022-08-31T10:48:15.190Z,102509.38
2022-08-31T10:50:54.588Z,102504.31
2022-08-31T10:53:43.674Z,102508.91
2022-08-31T10:56:22.014Z,102505.28
2022-08-31T10:59:03.495Z,102501.84
2022-08-31T11:01:44.225Z,102499.72
2022-08-31T11:04:38.339Z,102504.63
2022-08-31T11:07:19.657Z,102502.91
2022-08-31T11:09:58.289Z,102498.88
2022-08-31T11:12:43.137Z,102495.91
2022-08-31T11:15:44.396Z,102488.66
2022-08-31T11:18:40.242Z,102488.78
2022-08-31T11:21:35.588Z,102481.41
2022-08-31T11:24:38.177Z,102479.56
2022-08-31T11:27:14.587Z,102475.97
2022-08-31T11:29:57.449Z,102480.47
2022-08-31T11:32:36.926Z,102479.06
2022-08-31T11:35:11.962Z,102478.00
2022-08-31T11:37:56.070Z,102477.16
2022-08-31T11:41:15.233Z,102472.72
2022-08-31T11:43:55.206Z,102474.69
2022-08-31T11:46:54.028Z,102474.91
2022-08-31T11:49:44.617Z,102473.63
2022-08-31T11:52:32.238Z,102464.41
2022-08-31T11:55:09.093Z,102466.56
2022-08-31T11:58:12.146Z,102465.53
2022-08-31T12:00:54.851Z,102462.75
2022-08-31T12:03:38.327Z,102447.00
2022-08-31T12:06:09.000Z,102456.81
2022-08-31T12:08:46.837Z,102443.94
2022-08-31T12:11:22.625Z,102452.78
2022-08-31T12:14:02.173Z,102456.25
2022-08-31T12:16:49.124Z,102456.69
2022-08-31T12:20:02.590Z,102452.19
2022-08-31T12:23:32.085Z,102450.91
2022-08-31T12:26:34.710Z,102444.53
2022-08-31T12:29:22.535Z,102446.91
2022-08-31T12:32:19.587Z,102439.84
2022-08-31T12:34:54.275Z,102444.09
2022-08-31T12:37:26.954Z,102438.06
2022-08-31T12:40:16.037Z,102427.75
2022-08-31T12:42:56.666Z,102424.09
2022-08-31T12:45:44.736Z,102427.56
2022-08-31T12:48:26.343Z,102433.53
2022-08-31T12:51:05.486Z,102426.00
2022-08-31T12:53:58.581Z,102425.47
2022-08-31T12:56:36.731Z,102429.50
2022-08-31T12:59:40.740Z,102431.03
2022-08-31T13:02:17.745Z,102415.53
2022-08-31T13:04:49.685Z,102424.97
2022-08-31T13:07:24.354Z,102425.41
2022-08-31T13:10:06.732Z,102420.28
2022-08-31T13:12:39.148Z,102429.06
2022-08-31T13:15:23.225Z,102420.88
2022-08-31T13:17:55.698Z,102411.16
2022-08-31T13:20:35.586Z,102412.84
2022-08-31T13:23:08.119Z,102401.97
2022-08-31T13:25:38.242Z,102406.88
2022-08-31T13:28:21.483Z,102400.78
2022-08-31T13:31:01.485Z,102399.22
2022-08-31T13:33:36.366Z,102408.00
2022-08-31T13:36:14.238Z,102402.00
2022-08-31T13:38:51.708Z,102402.41
2022-08-31T13:41:27.440Z,102402.22
2022-08-31T13:44:04.085Z,102401.81
2022-08-31T13:46:44.475Z,102395.13
2022-08-31T13:49:31.476Z,102393.78
2022-08-31T13:52:02.661Z,102388.41
2022-08-31T13:54:35.907Z,102388.66
2022-08-31T13:57:18.021Z,102385.97
2022-08-31T13:59:51.673Z,102385.50
2022-08-31T14:02:37.797Z,102380.00
2022-08-31T14:05:09.262Z,102382.16
2022-08-31T14:08:02.143Z,102382.59
2022-08-31T14:10:36.242Z,102379.00
2022-08-31T14:13:10.200Z,102380.97
2022-08-31T14:15:50.944Z,102367.38
2022-08-31T14:18:29.176Z,102377.16
2022-08-31T14:21:22.009Z,102374.59
2022-08-31T14:24:02.453Z,102382.00
2022-08-31T14:26:42.239Z,102378.03
2022-08-31T14:29:15.856Z,102366.94
2022-08-31T14:31:49.837Z,102375.47
2022-08-31T14:34:31.256Z,102373.41
2022-08-31T14:37:07.035Z,102363.69
2022-08-31T14:39:43.359Z,102364.63
2022-08-31T14:42:19.358Z,102361.69
2022-08-31T14:44:54.070Z,102353.22
2022-08-31T14:47:23.108Z,102349.50
2022-08-31T14:49:52.945Z,102344.47
2022-08-31T14:52:26.258Z,102353.41
2022-08-31T14:54:59.590Z,102360.03
2022-08-31T14:57:29.383Z,102352.16
2022-08-31T15:00:02.857Z,102347.44
2022-08-31T15:02:38.790Z,102339.34
2022-08-31T15:05:11.161Z,102354.56
2022-08-31T15:07:42.700Z,102350.50
2022-08-31T15:10:13.943Z,102356.38
2022-08-31T15:12:43.696Z,102345.78
2022-08-31T15:15:18.641Z,102352.13
2022-08-31T15:17:53.547Z,102357.03
2022-08-31T15:20:28.248Z,102343.28
2022-08-31T15:22:57.489Z,102344.31
2022-08-31T15:25:30.748Z,102348.38
2022-08-31T15:28:02.760Z,102346.84
2022-08-31T15:30:34.439Z,102335.22
2022-08-31T15:33:04.500Z,102336.78
2022-08-31T15:35:35.848Z,102348.72
2022-08-31T15:38:10.295Z,102350.63
2022-08-31T15:40:42.120Z,102352.81
2022-08-31T15:43:15.946Z,102346.84
2022-08-31T15:45:44.939Z,102352.94
2022-08-31T15:48:31.097Z,102364.16
2022-08-31T15:51:01.864Z,102342.31
2022-08-31T15:53:32.591Z,102347.81
2022-08-31T15:56:06.691Z,102348.28
2022-08-31T15:58:39.698Z,102347.53
2022-08-31T16:01:12.793Z,102344.94
2022-08-31T16:03:42.274Z,102357.28
2022-08-31T16:06:13.523Z,102347.59
2022-08-31T16:08:42.727Z,102351.25
2022-08-31T16:11:13.473Z,102346.69
2022-08-31T16:13:49.235Z,102336.78
2022-08-31T16:16:18.705Z,102339.22
2022-08-31T16:18:48.775Z,102345.88
2022-08-31T16:21:20.345Z,102339.75
2022-08-31T16:23:50.308Z,102342.91
2022-08-31T16:26:23.505Z,102349.22
2022-08-31T16:28:53.071Z,102342.59
2022-08-31T16:31:23.426Z,102340.84
2022-08-31T16:33:55.264Z,102345.59
2022-08-31T16:36:26.041Z,102344.13
2022-08-31T16:38:56.645Z,102343.34
2022-08-31T16:41:30.749Z,102341.41
2022-08-31T16:44:18.876Z,102345.97
2022-08-31T16:46:48.774Z,102342.56
2022-08-31T16:49:36.511Z,102341.75
2022-08-31T16:52:08.333Z,102342.63
2022-08-31T16:54:42.765Z,102341.75
2022-08-31T16:57:15.459Z,102338.81
2022-08-31T16:59:44.914Z,102340.06
2022-08-31T17:02:16.294Z,102342.66
2022-08-31T17:04:52.574Z,102344.16
2022-08-31T17:07:23.789Z,102347.38
2022-08-31T17:09:57.144Z,102338.41
2022-08-31T17:12:28.859Z,102343.13
2022-08-31T17:15:00.715Z,102343.75
2022-08-31T17:17:30.808Z,102355.06
2022-08-31T17:20:01.037Z,102346.53
2022-08-31T17:22:33.834Z,102346.50
2022-08-31T17:25:05.033Z,102359.13
2022-08-31T17:27:36.582Z,102355.91
2022-08-31T17:30:08.135Z,102363.84
2022-08-31T17:32:39.544Z,102361.06
2022-08-31T17:35:19.373Z,102364.69
2022-08-31T17:37:49.953Z,102361.47
2022-08-31T17:40:18.671Z,102359.56
2022-08-31T17:42:51.634Z,102354.66
2022-08-31T17:45:21.339Z,102361.28
2022-08-31T17:47:50.493Z,102361.28
2022-08-31T17:50:21.340Z,102366.00
2022-08-31T17:52:49.783Z,102372.84
2022-08-31T17:55:18.702Z,102372.41
2022-08-31T17:57:48.988Z,102371.75
2022-08-31T18:00:17.984Z,102370.06
2022-08-31T18:02:47.815Z,102371.31
2022-08-31T18:05:16.599Z,102376.88
2022-08-31T18:07:46.109Z,102370.91
2022-08-31T18:10:14.863Z,102368.34
2022-08-31T18:12:43.564Z,102378.16
2022-08-31T18:15:17.612Z,102374.53
2022-08-31T18:17:47.842Z,102382.47
2022-08-31T18:20:16.603Z,102383.72
2022-08-31T18:22:46.099Z,102375.19
2022-08-31T18:25:17.709Z,102382.66
2022-08-31T18:27:48.459Z,102389.28
2022-08-31T18:30:19.207Z,102393.16
2022-08-31T18:32:49.426Z,102392.31
2022-08-31T18:35:17.582Z,102395.28
2022-08-31T18:37:46.128Z,102393.34
2022-08-31T18:40:32.233Z,102399.78
2022-08-31T18:43:18.857Z,102400.66
2022-08-31T18:45:51.435Z,102396.78
2022-08-31T18:48:35.422Z,102402.13
2022-08-31T18:51:13.515Z,102407.06
2022-08-31T18:53:44.352Z,102398.50
2022-08-31T18:56:13.472Z,102398.72
2022-08-31T18:58:43.107Z,102406.63
2022-08-31T19:01:15.576Z,102407.69
2022-08-31T19:03:45.596Z,102409.00
2022-08-31T19:06:19.376Z,102407.69
2022-08-31T19:08:47.586Z,102411.09
2022-08-31T19:11:16.415Z,102409.00
2022-08-31T19:13:46.201Z,102407.69
2022-08-31T19:16:20.089Z,102403.41
2022-08-31T19:18:58.081Z,102407.25
2022-08-31T19:21:32.445Z,102404.28
2022-08-31T19:24:06.052Z,102411.34
2022-08-31T19:26:43.918Z,102409.41
2022-08-31T19:29:16.391Z,102410.28
2022-08-31T19:31:49.925Z,102413.88
2022-08-31T19:34:22.400Z,102407.69
2022-08-31T19:36:54.734Z,102414.13
2022-08-31T19:39:30.320Z,102407.25
2022-08-31T19:42:03.654Z,102409.00
2022-08-31T19:47:26.753Z,102411.53
2022-08-31T19:49:57.749Z,102409.41
2022-08-31T19:52:28.489Z,102404.47
2022-08-31T19:55:09.006Z,102407.69
2022-08-31T19:57:42.740Z,102407.69
2022-08-31T20:00:15.638Z,102405.09
2022-08-31T20:02:46.470Z,102406.84
2022-08-31T20:05:16.414Z,102407.50
2022-08-31T20:07:47.104Z,102406.19
2022-08-31T20:10:16.766Z,102406.19
2022-08-31T20:12:46.513Z,102411.53
2022-08-31T20:15:17.392Z,102406.63
2022-08-31T20:17:50.312Z,102407.25
2022-08-31T20:20:19.581Z,102406.19
2022-08-31T20:22:48.909Z,102404.91
2022-08-31T20:25:19.097Z,102410.47
2022-08-31T20:27:50.506Z,102408.53
2022-08-31T20:30:19.566Z,102398.91
2022-08-31T20:32:52.587Z,102397.00
2022-08-31T20:35:23.055Z,102399.53
2022-08-31T20:37:57.032Z,102408.97
2022-08-31T20:40:30.879Z,102404.28
2022-08-31T20:43:03.972Z,102410.47
2022-08-31T20:45:34.384Z,102405.97
2022-08-31T20:48:25.835Z,102411.31
2022-08-31T20:50:57.145Z,102407.69
2022-08-31T20:53:43.391Z,102414.28
2022-08-31T20:56:16.930Z,102402.97
2022-08-31T20:58:48.501Z,102407.06
2022-08-31T21:01:16.677Z,102408.53
2022-08-31T21:03:49.385Z,102413.00
2022-08-31T21:06:18.146Z,102398.72
2022-08-31T21:08:46.218Z,102395.50
2022-08-31T21:11:16.244Z,102397.44
2022-08-31T21:13:47.436Z,102395.69
2022-08-31T21:16:17.667Z,102392.72
2022-08-31T21:18:49.918Z,102392.94
2022-08-31T21:21:18.475Z,102398.06
2022-08-31T21:23:48.343Z,102400.84
2022-08-31T21:26:21.411Z,102396.31
2022-08-31T21:28:50.658Z,102397.59
2022-08-31T21:31:29.317Z,102396.66
2022-08-31T21:34:01.019Z,102397.50
2022-08-31T21:36:32.877Z,102404.31
2022-08-31T21:39:01.084Z,102405.09
2022-08-31T21:41:30.153Z,102403.56
2022-08-31T21:43:58.855Z,102406.47
2022-08-31T21:46:29.220Z,102401.06
2022-08-31T21:48:59.929Z,102399.16
2022-08-31T21:51:30.035Z,102405.75
2022-08-31T21:54:00.055Z,102401.22
2022-08-31T21:56:30.391Z,102403.59
2022-08-31T21:58:59.073Z,102406.59
2022-08-31T22:01:29.559Z,102405.53
2022-08-31T22:04:00.325Z,102400.13
2022-08-31T22:06:31.235Z,102399.69
2022-08-31T22:09:01.482Z,102402.81
2022-08-31T22:11:32.031Z,102399.84
2022-08-31T22:14:00.576Z,102398.31
2022-08-31T22:16:28.535Z,102401.69
2022-08-31T22:19:02.081Z,102403.19
2022-08-31T22:21:33.146Z,102406.56
2022-08-31T22:24:04.839Z,102411.66
2022-08-31T22:26:35.683Z,102409.28
2022-08-31T22:29:05.386Z,102413.38
2022-08-31T22:31:37.296Z,102409.53
2022-08-31T22:34:08.400Z,102406.69
2022-08-31T22:36:37.332Z,102409.25
2022-08-31T22:39:12.917Z,102403.75
2022-08-31T22:41:41.777Z,102400.78
2022-08-31T22:44:12.500Z,102406.06
2022-08-31T22:46:41.191Z,102399.91
2022-08-31T22:49:11.431Z,102403.97
2022-08-31T22:51:41.604Z,102395.00
2022-08-31T22:54:10.566Z,102398.66
2022-08-31T22:56:39.966Z,102401.78
2022-08-31T22:59:13.866Z,102408.38
2022-08-31T23:01:44.028Z,102403.22
2022-08-31T23:04:18.887Z,102403.88
2022-08-31T23:06:49.419Z,102400.47
2022-08-31T23:09:21.071Z,102400.66
2022-08-31T23:11:51.261Z,102404.91
2022-08-31T23:14:21.104Z,102393.59
2022-08-31T23:16:59.368Z,102398.28
2022-08-31T23:19:33.265Z,102394.31
2022-08-31T23:22:01.583Z,102400.78
2022-08-31T23:24:33.833Z,102390.09
2022-08-31T23:27:05.195Z,102384.72
2022-08-31T23:29:35.757Z,102392.53
2022-08-31T23:32:04.528Z,102395.97
2022-08-31T23:34:38.726Z,102392.34
2022-08-31T23:37:09.386Z,102394.84
2022-08-31T23:39:41.220Z,102387.63
2022-08-31T23:42:13.833Z,102389.31
2022-08-31T23:44:47.950Z,102386.53
2022-08-31T23:47:22.794Z,102386.22
2022-08-31T23:49:54.630Z,102387.75
2022-08-31T23:52:25.617Z,102385.94
2022-08-31T23:54:57.710Z,102383.84
2022-08-31T23:57:32.630Z,102384.50
